Weather at Sundre Airport

Public forecast

Using degrees Celsius for public forecast. Weather courtesy of forecast.io.

Closest aviation weather report (METAR) to Sundre Airport

Closest report is Red Deer Regional Airport, 37.9 nm (70.2 km) NE. Retrieved 2020/09/28 07:00 UTC (56 minutes ago):

CYQF 280700Z 18007KT 15SM FEW070 SCT130 BKN250 06/M00 A3018 RMK AC2AC2CI2 PRESFR SLP242

Closest aviation forecast (TAF) to Sundre Airport

Closest forecast is Red Deer Regional Airport, 37.9 nm (70.2 km) NE. Retrieved 2020/09/28 06:39 UTC (1 hour ago):

TAF CYQF 280538Z 2806/2818 19005KT P6SM FEW100 BKN250 FM281500 22008KT P6SM SCT250 BECMG 2816/2818 26012G22KT RMK NXT FCST BY 281200Z